<?xml version="1.0" encoding="UTF-8"?>
<gpx xmlns="http://www.topografix.com/GPX/1/1" xmlns:xsi="http://www.w3.org/2001/XMLSchema-instance" version="1.1" xsi:schemaLocation="http://www.topografix.com/GPX/1/1 http://www.topografix.com/GPX/1/1/gpx.xsd">
  <metadata>
    <name>Cholmondeley Castle Triathlon Bike Course</name>
  </metadata>
  <trk>
    <name>Cholmondeley Castle Triathlon Bike Course</name>
    <trkseg>
      <trkpt lat="53.055108" lon="-2.688047">
        <ele>85.116502</ele>
        <time>2026-06-20T09:45:00.000Z</time>
      </trkpt>
      <trkpt lat="53.055225" lon="-2.687462">
        <ele>85.116498</ele>
        <time>2026-06-20T09:45:04.000Z</time>
      </trkpt>
      <trkpt lat="53.055246" lon="-2.687271">
        <ele>85.116507</ele>
        <time>2026-06-20T09:45:05.000Z</time>
      </trkpt>
      <trkpt lat="53.055268" lon="-2.686937">
        <ele>85.116509</ele>
        <time>2026-06-20T09:45:07.000Z</time>
      </trkpt>
      <trkpt lat="53.05525" lon="-2.685387">
        <ele>85.336708</ele>
        <time>2026-06-20T09:45:17.000Z</time>
      </trkpt>
      <trkpt lat="53.055197" lon="-2.684643">
        <ele>85.476552</ele>
        <time>2026-06-20T09:45:22.000Z</time>
      </trkpt>
      <trkpt lat="53.055019" lon="-2.683441">
        <ele>85.719462</ele>
        <time>2026-06-20T09:45:30.000Z</time>
      </trkpt>
      <trkpt lat="53.054764" lon="-2.6821">
        <ele>86.091175</ele>
        <time>2026-06-20T09:45:39.000Z</time>
      </trkpt>
      <trkpt lat="53.054342" lon="-2.680287">
        <ele>86.974172</ele>
        <time>2026-06-20T09:45:52.000Z</time>
      </trkpt>
      <trkpt lat="53.054126" lon="-2.679446">
        <ele>87.845405</ele>
        <time>2026-06-20T09:45:58.000Z</time>
      </trkpt>
      <trkpt lat="53.054007" lon="-2.679129">
        <ele>88.210459</ele>
        <time>2026-06-20T09:46:00.000Z</time>
      </trkpt>
      <trkpt lat="53.05381" lon="-2.678834">
        <ele>88.635998</ele>
        <time>2026-06-20T09:46:03.000Z</time>
      </trkpt>
      <trkpt lat="53.051997" lon="-2.676519">
        <ele>90.899537</ele>
        <time>2026-06-20T09:46:28.000Z</time>
      </trkpt>
      <trkpt lat="53.050752" lon="-2.675077">
        <ele>91.16021</ele>
        <time>2026-06-20T09:46:45.000Z</time>
      </trkpt>
      <trkpt lat="53.050424" lon="-2.674789">
        <ele>91.132386</ele>
        <time>2026-06-20T09:46:49.000Z</time>
      </trkpt>
      <trkpt lat="53.050517" lon="-2.677934">
        <ele>90.1282</ele>
        <time>2026-06-20T09:47:10.000Z</time>
      </trkpt>
      <trkpt lat="53.050599" lon="-2.679646">
        <ele>89.175091</ele>
        <time>2026-06-20T09:47:21.000Z</time>
      </trkpt>
      <trkpt lat="53.050645" lon="-2.680628">
        <ele>88.663778</ele>
        <time>2026-06-20T09:47:28.000Z</time>
      </trkpt>
      <trkpt lat="53.050634" lon="-2.680669">
        <ele>88.652433</ele>
        <time>2026-06-20T09:47:28.000Z</time>
      </trkpt>
      <trkpt lat="53.050655" lon="-2.680943">
        <ele>88.585044</ele>
        <time>2026-06-20T09:47:30.000Z</time>
      </trkpt>
      <trkpt lat="53.050619" lon="-2.681943">
        <ele>88.34559</ele>
        <time>2026-06-20T09:47:37.000Z</time>
      </trkpt>
      <trkpt lat="53.050578" lon="-2.682499">
        <ele>88.210138</ele>
        <time>2026-06-20T09:47:41.000Z</time>
      </trkpt>
      <trkpt lat="53.050178" lon="-2.685414">
        <ele>87.761522</ele>
        <time>2026-06-20T09:48:01.000Z</time>
      </trkpt>
      <trkpt lat="53.050112" lon="-2.686253">
        <ele>87.673844</ele>
        <time>2026-06-20T09:48:07.000Z</time>
      </trkpt>
      <trkpt lat="53.050171" lon="-2.686908">
        <ele>87.927953</ele>
        <time>2026-06-20T09:48:11.000Z</time>
      </trkpt>
      <trkpt lat="53.050239" lon="-2.687298">
        <ele>88.151637</ele>
        <time>2026-06-20T09:48:14.000Z</time>
      </trkpt>
      <trkpt lat="53.050529" lon="-2.689791">
        <ele>89.656187</ele>
        <time>2026-06-20T09:48:31.000Z</time>
      </trkpt>
      <trkpt lat="53.050632" lon="-2.690209">
        <ele>90.020941</ele>
        <time>2026-06-20T09:48:34.000Z</time>
      </trkpt>
      <trkpt lat="53.050973" lon="-2.691217">
        <ele>90.939002</ele>
        <time>2026-06-20T09:48:42.000Z</time>
      </trkpt>
      <trkpt lat="53.052207" lon="-2.693992">
        <ele>93.339988</ele>
        <time>2026-06-20T09:49:05.000Z</time>
      </trkpt>
      <trkpt lat="53.052251" lon="-2.69413">
        <ele>93.453183</ele>
        <time>2026-06-20T09:49:06.000Z</time>
      </trkpt>
      <trkpt lat="53.053827" lon="-2.697519">
        <ele>97.866924</ele>
        <time>2026-06-20T09:49:35.000Z</time>
      </trkpt>
      <trkpt lat="53.054221" lon="-2.698286">
        <ele>99.007582</ele>
        <time>2026-06-20T09:49:42.000Z</time>
      </trkpt>
      <trkpt lat="53.054476" lon="-2.698577">
        <ele>99.597358</ele>
        <time>2026-06-20T09:49:45.000Z</time>
      </trkpt>
      <trkpt lat="53.054837" lon="-2.698901">
        <ele>100.323879</ele>
        <time>2026-06-20T09:49:50.000Z</time>
      </trkpt>
      <trkpt lat="53.055203" lon="-2.699134">
        <ele>100.922091</ele>
        <time>2026-06-20T09:49:54.000Z</time>
      </trkpt>
      <trkpt lat="53.055787" lon="-2.699582">
        <ele>101.888088</ele>
        <time>2026-06-20T09:50:01.000Z</time>
      </trkpt>
      <trkpt lat="53.056738" lon="-2.700131">
        <ele>103.289892</ele>
        <time>2026-06-20T09:50:12.000Z</time>
      </trkpt>
      <trkpt lat="53.056754" lon="-2.700137">
        <ele>103.306247</ele>
        <time>2026-06-20T09:50:12.000Z</time>
      </trkpt>
      <trkpt lat="53.057492" lon="-2.700563">
        <ele>104.217385</ele>
        <time>2026-06-20T09:50:21.000Z</time>
      </trkpt>
      <trkpt lat="53.061011" lon="-2.70269">
        <ele>105.706769</ele>
        <time>2026-06-20T09:51:03.000Z</time>
      </trkpt>
      <trkpt lat="53.061876" lon="-2.703221">
        <ele>105.656028</ele>
        <time>2026-06-20T09:51:13.000Z</time>
      </trkpt>
      <trkpt lat="53.06208" lon="-2.703459">
        <ele>105.596356</ele>
        <time>2026-06-20T09:51:16.000Z</time>
      </trkpt>
      <trkpt lat="53.063127" lon="-2.70562">
        <ele>105.694484</ele>
        <time>2026-06-20T09:51:35.000Z</time>
      </trkpt>
      <trkpt lat="53.063453" lon="-2.706392">
        <ele>106.087167</ele>
        <time>2026-06-20T09:51:41.000Z</time>
      </trkpt>
      <trkpt lat="53.063687" lon="-2.707117">
        <ele>106.419422</ele>
        <time>2026-06-20T09:51:46.000Z</time>
      </trkpt>
      <trkpt lat="53.06405" lon="-2.70815">
        <ele>107.41163</ele>
        <time>2026-06-20T09:51:54.000Z</time>
      </trkpt>
      <trkpt lat="53.064698" lon="-2.710199">
        <ele>109.612563</ele>
        <time>2026-06-20T09:52:09.000Z</time>
      </trkpt>
      <trkpt lat="53.064907" lon="-2.7111">
        <ele>110.37745</ele>
        <time>2026-06-20T09:52:15.000Z</time>
      </trkpt>
      <trkpt lat="53.065739" lon="-2.712845">
        <ele>112.055987</ele>
        <time>2026-06-20T09:52:30.000Z</time>
      </trkpt>
      <trkpt lat="53.066023" lon="-2.713385">
        <ele>112.513171</ele>
        <time>2026-06-20T09:52:35.000Z</time>
      </trkpt>
      <trkpt lat="53.067488" lon="-2.715668">
        <ele>114.562336</ele>
        <time>2026-06-20T09:52:57.000Z</time>
      </trkpt>
      <trkpt lat="53.067699" lon="-2.716027">
        <ele>114.863051</ele>
        <time>2026-06-20T09:53:00.000Z</time>
      </trkpt>
      <trkpt lat="53.068685" lon="-2.718063">
        <ele>116.319535</ele>
        <time>2026-06-20T09:53:17.000Z</time>
      </trkpt>
      <trkpt lat="53.06874" lon="-2.718182">
        <ele>116.401422</ele>
        <time>2026-06-20T09:53:18.000Z</time>
      </trkpt>
      <trkpt lat="53.068833" lon="-2.718385">
        <ele>116.531447</ele>
        <time>2026-06-20T09:53:20.000Z</time>
      </trkpt>
      <trkpt lat="53.069124" lon="-2.718724">
        <ele>116.835692</ele>
        <time>2026-06-20T09:53:24.000Z</time>
      </trkpt>
      <trkpt lat="53.0692" lon="-2.718947">
        <ele>116.974195</ele>
        <time>2026-06-20T09:53:26.000Z</time>
      </trkpt>
      <trkpt lat="53.069266" lon="-2.719359">
        <ele>117.197411</ele>
        <time>2026-06-20T09:53:29.000Z</time>
      </trkpt>
      <trkpt lat="53.069308" lon="-2.720131">
        <ele>117.618078</ele>
        <time>2026-06-20T09:53:34.000Z</time>
      </trkpt>
      <trkpt lat="53.069402" lon="-2.720748">
        <ele>117.962098</ele>
        <time>2026-06-20T09:53:38.000Z</time>
      </trkpt>
      <trkpt lat="53.069502" lon="-2.721118">
        <ele>118.183925</ele>
        <time>2026-06-20T09:53:41.000Z</time>
      </trkpt>
      <trkpt lat="53.069788" lon="-2.721854">
        <ele>118.66812</ele>
        <time>2026-06-20T09:53:47.000Z</time>
      </trkpt>
      <trkpt lat="53.070255" lon="-2.722567">
        <ele>119.889783</ele>
        <time>2026-06-20T09:53:54.000Z</time>
      </trkpt>
      <trkpt lat="53.070426" lon="-2.722736">
        <ele>120.297478</ele>
        <time>2026-06-20T09:53:56.000Z</time>
      </trkpt>
      <trkpt lat="53.070811" lon="-2.723022">
        <ele>121.114662</ele>
        <time>2026-06-20T09:54:01.000Z</time>
      </trkpt>
      <trkpt lat="53.070965" lon="-2.72323">
        <ele>121.512507</ele>
        <time>2026-06-20T09:54:03.000Z</time>
      </trkpt>
      <trkpt lat="53.071203" lon="-2.723779">
        <ele>122.310152</ele>
        <time>2026-06-20T09:54:08.000Z</time>
      </trkpt>
      <trkpt lat="53.071447" lon="-2.724206">
        <ele>122.922068</ele>
        <time>2026-06-20T09:54:12.000Z</time>
      </trkpt>
      <trkpt lat="53.071936" lon="-2.724945">
        <ele>124.036179</ele>
        <time>2026-06-20T09:54:19.000Z</time>
      </trkpt>
      <trkpt lat="53.072199" lon="-2.725398">
        <ele>124.662248</ele>
        <time>2026-06-20T09:54:23.000Z</time>
      </trkpt>
      <trkpt lat="53.072539" lon="-2.726085">
        <ele>125.028659</ele>
        <time>2026-06-20T09:54:29.000Z</time>
      </trkpt>
      <trkpt lat="53.072625" lon="-2.726536">
        <ele>124.61211</ele>
        <time>2026-06-20T09:54:32.000Z</time>
      </trkpt>
      <trkpt lat="53.072665" lon="-2.727138">
        <ele>124.102258</ele>
        <time>2026-06-20T09:54:36.000Z</time>
      </trkpt>
      <trkpt lat="53.072609" lon="-2.727948">
        <ele>123.389406</ele>
        <time>2026-06-20T09:54:41.000Z</time>
      </trkpt>
      <trkpt lat="53.072599" lon="-2.728633">
        <ele>122.788529</ele>
        <time>2026-06-20T09:54:46.000Z</time>
      </trkpt>
      <trkpt lat="53.072603" lon="-2.728748">
        <ele>122.694016</ele>
        <time>2026-06-20T09:54:47.000Z</time>
      </trkpt>
      <trkpt lat="53.072602" lon="-2.729099">
        <ele>122.315773</ele>
        <time>2026-06-20T09:54:49.000Z</time>
      </trkpt>
      <trkpt lat="53.072464" lon="-2.730724">
        <ele>120.588117</ele>
        <time>2026-06-20T09:55:00.000Z</time>
      </trkpt>
      <trkpt lat="53.072463" lon="-2.731099">
        <ele>120.191069</ele>
        <time>2026-06-20T09:55:03.000Z</time>
      </trkpt>
      <trkpt lat="53.072523" lon="-2.73132">
        <ele>119.932793</ele>
        <time>2026-06-20T09:55:05.000Z</time>
      </trkpt>
      <trkpt lat="53.072729" lon="-2.731613">
        <ele>119.565349</ele>
        <time>2026-06-20T09:55:08.000Z</time>
      </trkpt>
      <trkpt lat="53.072856" lon="-2.73179">
        <ele>119.756594</ele>
        <time>2026-06-20T09:55:10.000Z</time>
      </trkpt>
      <trkpt lat="53.073344" lon="-2.7322">
        <ele>120.420056</ele>
        <time>2026-06-20T09:55:16.000Z</time>
      </trkpt>
      <trkpt lat="53.073381" lon="-2.732307">
        <ele>120.500982</ele>
        <time>2026-06-20T09:55:17.000Z</time>
      </trkpt>
      <trkpt lat="53.073096" lon="-2.732366">
        <ele>120.829104</ele>
        <time>2026-06-20T09:55:20.000Z</time>
      </trkpt>
      <trkpt lat="53.07283" lon="-2.732531">
        <ele>121.174572</ele>
        <time>2026-06-20T09:55:23.000Z</time>
      </trkpt>
      <trkpt lat="53.072595" lon="-2.732773">
        <ele>121.50119</ele>
        <time>2026-06-20T09:55:26.000Z</time>
      </trkpt>
      <trkpt lat="53.072432" lon="-2.732998">
        <ele>121.713113</ele>
        <time>2026-06-20T09:55:28.000Z</time>
      </trkpt>
      <trkpt lat="53.072289" lon="-2.733136">
        <ele>121.792268</ele>
        <time>2026-06-20T09:55:30.000Z</time>
      </trkpt>
      <trkpt lat="53.071357" lon="-2.733637">
        <ele>122.277999</ele>
        <time>2026-06-20T09:55:41.000Z</time>
      </trkpt>
      <trkpt lat="53.069543" lon="-2.733875">
        <ele>120.016854</ele>
        <time>2026-06-20T09:56:01.000Z</time>
      </trkpt>
      <trkpt lat="53.0692" lon="-2.733876">
        <ele>119.31471</ele>
        <time>2026-06-20T09:56:05.000Z</time>
      </trkpt>
      <trkpt lat="53.069176" lon="-2.733882">
        <ele>119.251056</ele>
        <time>2026-06-20T09:56:05.000Z</time>
      </trkpt>
      <trkpt lat="53.068054" lon="-2.733875">
        <ele>116.513526</ele>
        <time>2026-06-20T09:56:17.000Z</time>
      </trkpt>
      <trkpt lat="53.067488" lon="-2.734034">
        <ele>115.053847</ele>
        <time>2026-06-20T09:56:23.000Z</time>
      </trkpt>
      <trkpt lat="53.066643" lon="-2.734471">
        <ele>113.546987</ele>
        <time>2026-06-20T09:56:33.000Z</time>
      </trkpt>
      <trkpt lat="53.066181" lon="-2.734862">
        <ele>112.897485</ele>
        <time>2026-06-20T09:56:39.000Z</time>
      </trkpt>
      <trkpt lat="53.065254" lon="-2.735604">
        <ele>111.674232</ele>
        <time>2026-06-20T09:56:50.000Z</time>
      </trkpt>
      <trkpt lat="53.064602" lon="-2.735896">
        <ele>110.973933</ele>
        <time>2026-06-20T09:56:58.000Z</time>
      </trkpt>
      <trkpt lat="53.063617" lon="-2.736808">
        <ele>109.494158</ele>
        <time>2026-06-20T09:57:11.000Z</time>
      </trkpt>
      <trkpt lat="53.06332" lon="-2.736924">
        <ele>108.918254</ele>
        <time>2026-06-20T09:57:14.000Z</time>
      </trkpt>
      <trkpt lat="53.062314" lon="-2.736748">
        <ele>107.032272</ele>
        <time>2026-06-20T09:57:25.000Z</time>
      </trkpt>
      <trkpt lat="53.061812" lon="-2.73676">
        <ele>106.516457</ele>
        <time>2026-06-20T09:57:31.000Z</time>
      </trkpt>
      <trkpt lat="53.061106" lon="-2.737139">
        <ele>106.014748</ele>
        <time>2026-06-20T09:57:39.000Z</time>
      </trkpt>
      <trkpt lat="53.060754" lon="-2.737409">
        <ele>105.751468</ele>
        <time>2026-06-20T09:57:43.000Z</time>
      </trkpt>
      <trkpt lat="53.060192" lon="-2.737898">
        <ele>105.888259</ele>
        <time>2026-06-20T09:57:50.000Z</time>
      </trkpt>
      <trkpt lat="53.057328" lon="-2.740751">
        <ele>109.005119</ele>
        <time>2026-06-20T09:58:27.000Z</time>
      </trkpt>
      <trkpt lat="53.056518" lon="-2.74163">
        <ele>107.240105</ele>
        <time>2026-06-20T09:58:38.000Z</time>
      </trkpt>
      <trkpt lat="53.056359" lon="-2.741709">
        <ele>106.918732</ele>
        <time>2026-06-20T09:58:40.000Z</time>
      </trkpt>
      <trkpt lat="53.055091" lon="-2.741954">
        <ele>104.330311</ele>
        <time>2026-06-20T09:58:54.000Z</time>
      </trkpt>
      <trkpt lat="53.054898" lon="-2.742014">
        <ele>103.885676</ele>
        <time>2026-06-20T09:58:56.000Z</time>
      </trkpt>
      <trkpt lat="53.054683" lon="-2.742174">
        <ele>103.38801</ele>
        <time>2026-06-20T09:58:59.000Z</time>
      </trkpt>
      <trkpt lat="53.053902" lon="-2.742975">
        <ele>101.796067</ele>
        <time>2026-06-20T09:59:09.000Z</time>
      </trkpt>
      <trkpt lat="53.053569" lon="-2.743257">
        <ele>101.684502</ele>
        <time>2026-06-20T09:59:13.000Z</time>
      </trkpt>
      <trkpt lat="53.052634" lon="-2.743924">
        <ele>101.383897</ele>
        <time>2026-06-20T09:59:24.000Z</time>
      </trkpt>
      <trkpt lat="53.052226" lon="-2.744332">
        <ele>101.527709</ele>
        <time>2026-06-20T09:59:29.000Z</time>
      </trkpt>
      <trkpt lat="53.051798" lon="-2.744939">
        <ele>101.91384</ele>
        <time>2026-06-20T09:59:35.000Z</time>
      </trkpt>
      <trkpt lat="53.051487" lon="-2.745271">
        <ele>102.157612</ele>
        <time>2026-06-20T09:59:39.000Z</time>
      </trkpt>
      <trkpt lat="53.051206" lon="-2.745444">
        <ele>102.366581</ele>
        <time>2026-06-20T09:59:42.000Z</time>
      </trkpt>
      <trkpt lat="53.050614" lon="-2.745706">
        <ele>102.990848</ele>
        <time>2026-06-20T09:59:49.000Z</time>
      </trkpt>
      <trkpt lat="53.050341" lon="-2.74577">
        <ele>103.352037</ele>
        <time>2026-06-20T09:59:52.000Z</time>
      </trkpt>
      <trkpt lat="53.049863" lon="-2.74574">
        <ele>103.953027</ele>
        <time>2026-06-20T09:59:57.000Z</time>
      </trkpt>
      <trkpt lat="53.04978" lon="-2.745545">
        <ele>104.137541</ele>
        <time>2026-06-20T09:59:59.000Z</time>
      </trkpt>
      <trkpt lat="53.049104" lon="-2.744562">
        <ele>105.296433</ele>
        <time>2026-06-20T10:00:09.000Z</time>
      </trkpt>
      <trkpt lat="53.047585" lon="-2.742698">
        <ele>107.919487</ele>
        <time>2026-06-20T10:00:30.000Z</time>
      </trkpt>
      <trkpt lat="53.047547" lon="-2.742652">
        <ele>107.992033</ele>
        <time>2026-06-20T10:00:31.000Z</time>
      </trkpt>
      <trkpt lat="53.047459" lon="-2.742529">
        <ele>108.20327</ele>
        <time>2026-06-20T10:00:32.000Z</time>
      </trkpt>
      <trkpt lat="53.047336" lon="-2.74236">
        <ele>108.459877</ele>
        <time>2026-06-20T10:00:34.000Z</time>
      </trkpt>
      <trkpt lat="53.046991" lon="-2.741655">
        <ele>109.364258</ele>
        <time>2026-06-20T10:00:40.000Z</time>
      </trkpt>
      <trkpt lat="53.045603" lon="-2.739944">
        <ele>114.162508</ele>
        <time>2026-06-20T10:00:59.000Z</time>
      </trkpt>
      <trkpt lat="53.044095" lon="-2.737657">
        <ele>122.533345</ele>
        <time>2026-06-20T10:01:22.000Z</time>
      </trkpt>
      <trkpt lat="53.043333" lon="-2.736951">
        <ele>125.792352</ele>
        <time>2026-06-20T10:01:32.000Z</time>
      </trkpt>
      <trkpt lat="53.04261" lon="-2.736044">
        <ele>128.675476</ele>
        <time>2026-06-20T10:01:42.000Z</time>
      </trkpt>
      <trkpt lat="53.042845" lon="-2.735755">
        <ele>129.632784</ele>
        <time>2026-06-20T10:01:45.000Z</time>
      </trkpt>
      <trkpt lat="53.0434" lon="-2.73494">
        <ele>129.7022</ele>
        <time>2026-06-20T10:01:53.000Z</time>
      </trkpt>
      <trkpt lat="53.043632" lon="-2.734664">
        <ele>129.639911</ele>
        <time>2026-06-20T10:01:56.000Z</time>
      </trkpt>
      <trkpt lat="53.044072" lon="-2.734307">
        <ele>129.529228</ele>
        <time>2026-06-20T10:02:01.000Z</time>
      </trkpt>
      <trkpt lat="53.044885" lon="-2.733906">
        <ele>127.246351</ele>
        <time>2026-06-20T10:02:10.000Z</time>
      </trkpt>
      <trkpt lat="53.045345" lon="-2.733478">
        <ele>124.847745</ele>
        <time>2026-06-20T10:02:16.000Z</time>
      </trkpt>
      <trkpt lat="53.045528" lon="-2.733281">
        <ele>123.84245</ele>
        <time>2026-06-20T10:02:18.000Z</time>
      </trkpt>
      <trkpt lat="53.045984" lon="-2.732657">
        <ele>121.095275</ele>
        <time>2026-06-20T10:02:25.000Z</time>
      </trkpt>
      <trkpt lat="53.046238" lon="-2.732205">
        <ele>118.823608</ele>
        <time>2026-06-20T10:02:29.000Z</time>
      </trkpt>
      <trkpt lat="53.046367" lon="-2.731885">
        <ele>117.331792</ele>
        <time>2026-06-20T10:02:32.000Z</time>
      </trkpt>
      <trkpt lat="53.046593" lon="-2.730761">
        <ele>112.929543</ele>
        <time>2026-06-20T10:02:40.000Z</time>
      </trkpt>
      <trkpt lat="53.046656" lon="-2.73054">
        <ele>111.96841</ele>
        <time>2026-06-20T10:02:42.000Z</time>
      </trkpt>
      <trkpt lat="53.04701" lon="-2.729958">
        <ele>109.141551</ele>
        <time>2026-06-20T10:02:48.000Z</time>
      </trkpt>
      <trkpt lat="53.048171" lon="-2.728392">
        <ele>102.046093</ele>
        <time>2026-06-20T10:03:05.000Z</time>
      </trkpt>
      <trkpt lat="53.048921" lon="-2.727716">
        <ele>97.951366</ele>
        <time>2026-06-20T10:03:14.000Z</time>
      </trkpt>
      <trkpt lat="53.049058" lon="-2.727542">
        <ele>97.115918</ele>
        <time>2026-06-20T10:03:16.000Z</time>
      </trkpt>
      <trkpt lat="53.049148" lon="-2.727295">
        <ele>96.270725</ele>
        <time>2026-06-20T10:03:18.000Z</time>
      </trkpt>
      <trkpt lat="53.049404" lon="-2.726457">
        <ele>93.550184</ele>
        <time>2026-06-20T10:03:24.000Z</time>
      </trkpt>
      <trkpt lat="53.049458" lon="-2.726143">
        <ele>92.687094</ele>
        <time>2026-06-20T10:03:26.000Z</time>
      </trkpt>
      <trkpt lat="53.049515" lon="-2.725424">
        <ele>91.811265</ele>
        <time>2026-06-20T10:03:31.000Z</time>
      </trkpt>
      <trkpt lat="53.049536" lon="-2.725121">
        <ele>91.444299</ele>
        <time>2026-06-20T10:03:33.000Z</time>
      </trkpt>
      <trkpt lat="53.049562" lon="-2.724971">
        <ele>91.247417</ele>
        <time>2026-06-20T10:03:34.000Z</time>
      </trkpt>
      <trkpt lat="53.049617" lon="-2.724691">
        <ele>90.885933</ele>
        <time>2026-06-20T10:03:36.000Z</time>
      </trkpt>
      <trkpt lat="53.049736" lon="-2.724413">
        <ele>90.479254</ele>
        <time>2026-06-20T10:03:38.000Z</time>
      </trkpt>
      <trkpt lat="53.050317" lon="-2.723368">
        <ele>89.142411</ele>
        <time>2026-06-20T10:03:48.000Z</time>
      </trkpt>
      <trkpt lat="53.050875" lon="-2.721987">
        <ele>89.105162</ele>
        <time>2026-06-20T10:03:59.000Z</time>
      </trkpt>
      <trkpt lat="53.051129" lon="-2.721408">
        <ele>89.089208</ele>
        <time>2026-06-20T10:04:04.000Z</time>
      </trkpt>
      <trkpt lat="53.051258" lon="-2.721053">
        <ele>89.259764</ele>
        <time>2026-06-20T10:04:07.000Z</time>
      </trkpt>
      <trkpt lat="53.051317" lon="-2.720766">
        <ele>89.699942</ele>
        <time>2026-06-20T10:04:09.000Z</time>
      </trkpt>
      <trkpt lat="53.051455" lon="-2.720264">
        <ele>90.476938</ele>
        <time>2026-06-20T10:04:13.000Z</time>
      </trkpt>
      <trkpt lat="53.051548" lon="-2.719981">
        <ele>90.928146</ele>
        <time>2026-06-20T10:04:15.000Z</time>
      </trkpt>
      <trkpt lat="53.051773" lon="-2.71963">
        <ele>91.63223</ele>
        <time>2026-06-20T10:04:18.000Z</time>
      </trkpt>
      <trkpt lat="53.052072" lon="-2.718627">
        <ele>93.208331</ele>
        <time>2026-06-20T10:04:25.000Z</time>
      </trkpt>
      <trkpt lat="53.052279" lon="-2.718082">
        <ele>94.606173</ele>
        <time>2026-06-20T10:04:29.000Z</time>
      </trkpt>
      <trkpt lat="53.052293" lon="-2.718009">
        <ele>94.767154</ele>
        <time>2026-06-20T10:04:30.000Z</time>
      </trkpt>
      <trkpt lat="53.052324" lon="-2.717936">
        <ele>94.955353</ele>
        <time>2026-06-20T10:04:31.000Z</time>
      </trkpt>
      <trkpt lat="53.052762" lon="-2.716883">
        <ele>97.822719</ele>
        <time>2026-06-20T10:04:40.000Z</time>
      </trkpt>
      <trkpt lat="53.053063" lon="-2.716367">
        <ele>99.447441</ele>
        <time>2026-06-20T10:04:45.000Z</time>
      </trkpt>
      <trkpt lat="53.053286" lon="-2.71583">
        <ele>100.545524</ele>
        <time>2026-06-20T10:04:49.000Z</time>
      </trkpt>
      <trkpt lat="53.053362" lon="-2.715545">
        <ele>100.990458</ele>
        <time>2026-06-20T10:04:51.000Z</time>
      </trkpt>
      <trkpt lat="53.053364" lon="-2.715079">
        <ele>101.615657</ele>
        <time>2026-06-20T10:04:54.000Z</time>
      </trkpt>
      <trkpt lat="53.053205" lon="-2.713881">
        <ele>103.30521</ele>
        <time>2026-06-20T10:05:02.000Z</time>
      </trkpt>
      <trkpt lat="53.053173" lon="-2.713485">
        <ele>103.856284</ele>
        <time>2026-06-20T10:05:05.000Z</time>
      </trkpt>
      <trkpt lat="53.053248" lon="-2.711514">
        <ele>105.382374</ele>
        <time>2026-06-20T10:05:18.000Z</time>
      </trkpt>
      <trkpt lat="53.053226" lon="-2.711253">
        <ele>105.583157</ele>
        <time>2026-06-20T10:05:20.000Z</time>
      </trkpt>
      <trkpt lat="53.052907" lon="-2.710424">
        <ele>106.240061</ele>
        <time>2026-06-20T10:05:27.000Z</time>
      </trkpt>
      <trkpt lat="53.052888" lon="-2.710271">
        <ele>106.239893</ele>
        <time>2026-06-20T10:05:28.000Z</time>
      </trkpt>
      <trkpt lat="53.052905" lon="-2.710103">
        <ele>106.239689</ele>
        <time>2026-06-20T10:05:29.000Z</time>
      </trkpt>
      <trkpt lat="53.053003" lon="-2.709887">
        <ele>106.239383</ele>
        <time>2026-06-20T10:05:31.000Z</time>
      </trkpt>
      <trkpt lat="53.053519" lon="-2.708813">
        <ele>106.237814</ele>
        <time>2026-06-20T10:05:40.000Z</time>
      </trkpt>
      <trkpt lat="53.053768" lon="-2.708003">
        <ele>106.236747</ele>
        <time>2026-06-20T10:05:46.000Z</time>
      </trkpt>
      <trkpt lat="53.053915" lon="-2.707611">
        <ele>105.939673</ele>
        <time>2026-06-20T10:05:49.000Z</time>
      </trkpt>
      <trkpt lat="53.054541" lon="-2.706389">
        <ele>104.737732</ele>
        <time>2026-06-20T10:06:00.000Z</time>
      </trkpt>
      <trkpt lat="53.054682" lon="-2.705958">
        <ele>104.387315</ele>
        <time>2026-06-20T10:06:03.000Z</time>
      </trkpt>
      <trkpt lat="53.055356" lon="-2.701993">
        <ele>100.985049</ele>
        <time>2026-06-20T10:06:31.000Z</time>
      </trkpt>
      <trkpt lat="53.055555" lon="-2.700828">
        <ele>101.246342</ele>
        <time>2026-06-20T10:06:39.000Z</time>
      </trkpt>
      <trkpt lat="53.05579" lon="-2.699565">
        <ele>101.605023</ele>
        <time>2026-06-20T10:06:48.000Z</time>
      </trkpt>
      <trkpt lat="53.055794" lon="-2.6993">
        <ele>101.783497</ele>
        <time>2026-06-20T10:06:50.000Z</time>
      </trkpt>
      <trkpt lat="53.055792" lon="-2.699295">
        <ele>101.783512</ele>
        <time>2026-06-20T10:06:50.000Z</time>
      </trkpt>
      <trkpt lat="53.055652" lon="-2.698896">
        <ele>102.078398</ele>
        <time>2026-06-20T10:06:53.000Z</time>
      </trkpt>
      <trkpt lat="53.055519" lon="-2.698403">
        <ele>102.42366</ele>
        <time>2026-06-20T10:06:57.000Z</time>
      </trkpt>
      <trkpt lat="53.055465" lon="-2.698002">
        <ele>102.68721</ele>
        <time>2026-06-20T10:07:00.000Z</time>
      </trkpt>
      <trkpt lat="53.055473" lon="-2.6978">
        <ele>102.809513</ele>
        <time>2026-06-20T10:07:01.000Z</time>
      </trkpt>
      <trkpt lat="53.055484" lon="-2.697787">
        <ele>102.819611</ele>
        <time>2026-06-20T10:07:01.000Z</time>
      </trkpt>
      <trkpt lat="53.055478" lon="-2.697781">
        <ele>102.820889</ele>
        <time>2026-06-20T10:07:01.000Z</time>
      </trkpt>
      <trkpt lat="53.055564" lon="-2.697391">
        <ele>103.087978</ele>
        <time>2026-06-20T10:07:04.000Z</time>
      </trkpt>
      <trkpt lat="53.055558" lon="-2.697364">
        <ele>103.108792</ele>
        <time>2026-06-20T10:07:04.000Z</time>
      </trkpt>
      <trkpt lat="53.055565" lon="-2.697365">
        <ele>103.110455</ele>
        <time>2026-06-20T10:07:04.000Z</time>
      </trkpt>
      <trkpt lat="53.055712" lon="-2.696989">
        <ele>103.39712</ele>
        <time>2026-06-20T10:07:07.000Z</time>
      </trkpt>
      <trkpt lat="53.055997" lon="-2.696348">
        <ele>101.965842</ele>
        <time>2026-06-20T10:07:12.000Z</time>
      </trkpt>
      <trkpt lat="53.055993" lon="-2.69635">
        <ele>101.965833</ele>
        <time>2026-06-20T10:07:12.000Z</time>
      </trkpt>
      <trkpt lat="53.05595" lon="-2.696129">
        <ele>101.516298</ele>
        <time>2026-06-20T10:07:14.000Z</time>
      </trkpt>
      <trkpt lat="53.055838" lon="-2.695854">
        <ele>100.906852</ele>
        <time>2026-06-20T10:07:16.000Z</time>
      </trkpt>
      <trkpt lat="53.055737" lon="-2.695696">
        <ele>100.440072</ele>
        <time>2026-06-20T10:07:18.000Z</time>
      </trkpt>
      <trkpt lat="53.055526" lon="-2.695517">
        <ele>99.698461</ele>
        <time>2026-06-20T10:07:21.000Z</time>
      </trkpt>
      <trkpt lat="53.05527" lon="-2.69523">
        <ele>98.731629</ele>
        <time>2026-06-20T10:07:24.000Z</time>
      </trkpt>
      <trkpt lat="53.054876" lon="-2.694683">
        <ele>97.018334</ele>
        <time>2026-06-20T10:07:30.000Z</time>
      </trkpt>
      <trkpt lat="53.054689" lon="-2.694371">
        <ele>96.100797</ele>
        <time>2026-06-20T10:07:33.000Z</time>
      </trkpt>
      <trkpt lat="53.054555" lon="-2.694025">
        <ele>95.2206</ele>
        <time>2026-06-20T10:07:36.000Z</time>
      </trkpt>
      <trkpt lat="53.054396" lon="-2.693521">
        <ele>94.031058</ele>
        <time>2026-06-20T10:07:40.000Z</time>
      </trkpt>
      <trkpt lat="53.054321" lon="-2.69302">
        <ele>92.892321</ele>
        <time>2026-06-20T10:07:43.000Z</time>
      </trkpt>
      <trkpt lat="53.054304" lon="-2.692747">
        <ele>92.302406</ele>
        <time>2026-06-20T10:07:45.000Z</time>
      </trkpt>
      <trkpt lat="53.054304" lon="-2.692215">
        <ele>91.23039</ele>
        <time>2026-06-20T10:07:49.000Z</time>
      </trkpt>
      <trkpt lat="53.054377" lon="-2.691716">
        <ele>90.446917</ele>
        <time>2026-06-20T10:07:52.000Z</time>
      </trkpt>
      <trkpt lat="53.054389" lon="-2.691627">
        <ele>90.321407</ele>
        <time>2026-06-20T10:07:53.000Z</time>
      </trkpt>
      <trkpt lat="53.055028" lon="-2.688392">
        <ele>86.212355</ele>
        <time>2026-06-20T10:08:16.000Z</time>
      </trkpt>
      <trkpt lat="53.055036" lon="-2.688384">
        <ele>86.206947</ele>
        <time>2026-06-20T10:08:16.000Z</time>
      </trkpt>
      <trkpt lat="53.055116" lon="-2.688035">
        <ele>86.019384</ele>
        <time>2026-06-20T10:08:18.000Z</time>
      </trkpt>
      <trkpt lat="53.055222" lon="-2.687454">
        <ele>85.699186</ele>
        <time>2026-06-20T10:08:22.000Z</time>
      </trkpt>
      <trkpt lat="53.055241" lon="-2.687272">
        <ele>85.60427</ele>
        <time>2026-06-20T10:08:23.000Z</time>
      </trkpt>
      <trkpt lat="53.055256" lon="-2.686937">
        <ele>85.427459</ele>
        <time>2026-06-20T10:08:25.000Z</time>
      </trkpt>
      <trkpt lat="53.055255" lon="-2.685391">
        <ele>85.407117</ele>
        <time>2026-06-20T10:08:35.000Z</time>
      </trkpt>
      <trkpt lat="53.055204" lon="-2.684645">
        <ele>85.516148</ele>
        <time>2026-06-20T10:08:40.000Z</time>
      </trkpt>
      <trkpt lat="53.055018" lon="-2.683451">
        <ele>85.714467</ele>
        <time>2026-06-20T10:08:48.000Z</time>
      </trkpt>
      <trkpt lat="53.054768" lon="-2.682108">
        <ele>86.094716</ele>
        <time>2026-06-20T10:08:57.000Z</time>
      </trkpt>
      <trkpt lat="53.054356" lon="-2.680287">
        <ele>86.97028</ele>
        <time>2026-06-20T10:09:10.000Z</time>
      </trkpt>
      <trkpt lat="53.054123" lon="-2.679448">
        <ele>87.841259</ele>
        <time>2026-06-20T10:09:16.000Z</time>
      </trkpt>
      <trkpt lat="53.054002" lon="-2.679136">
        <ele>88.206203</ele>
        <time>2026-06-20T10:09:18.000Z</time>
      </trkpt>
      <trkpt lat="53.053807" lon="-2.678835">
        <ele>88.631608</ele>
        <time>2026-06-20T10:09:21.000Z</time>
      </trkpt>
      <trkpt lat="53.051986" lon="-2.676514">
        <ele>90.904504</ele>
        <time>2026-06-20T10:09:47.000Z</time>
      </trkpt>
      <trkpt lat="53.050756" lon="-2.675088">
        <ele>91.156704</ele>
        <time>2026-06-20T10:10:04.000Z</time>
      </trkpt>
      <trkpt lat="53.050429" lon="-2.674782">
        <ele>91.135953</ele>
        <time>2026-06-20T10:10:08.000Z</time>
      </trkpt>
      <trkpt lat="53.050512" lon="-2.677934">
        <ele>90.130474</ele>
        <time>2026-06-20T10:10:29.000Z</time>
      </trkpt>
      <trkpt lat="53.050597" lon="-2.679653">
        <ele>89.177508</ele>
        <time>2026-06-20T10:10:41.000Z</time>
      </trkpt>
      <trkpt lat="53.050631" lon="-2.680616">
        <ele>88.65917</ele>
        <time>2026-06-20T10:10:47.000Z</time>
      </trkpt>
      <trkpt lat="53.050639" lon="-2.680677">
        <ele>88.647934</ele>
        <time>2026-06-20T10:10:47.000Z</time>
      </trkpt>
      <trkpt lat="53.050642" lon="-2.680947">
        <ele>88.581214</ele>
        <time>2026-06-20T10:10:49.000Z</time>
      </trkpt>
      <trkpt lat="53.050632" lon="-2.681935">
        <ele>88.344119</ele>
        <time>2026-06-20T10:10:56.000Z</time>
      </trkpt>
      <trkpt lat="53.050578" lon="-2.682491">
        <ele>88.210011</ele>
        <time>2026-06-20T10:11:00.000Z</time>
      </trkpt>
      <trkpt lat="53.05018" lon="-2.68542">
        <ele>87.764398</ele>
        <time>2026-06-20T10:11:20.000Z</time>
      </trkpt>
      <trkpt lat="53.050106" lon="-2.686251">
        <ele>87.678319</ele>
        <time>2026-06-20T10:11:26.000Z</time>
      </trkpt>
      <trkpt lat="53.050178" lon="-2.686898">
        <ele>87.920471</ele>
        <time>2026-06-20T10:11:30.000Z</time>
      </trkpt>
      <trkpt lat="53.05024" lon="-2.687287">
        <ele>88.146584</ele>
        <time>2026-06-20T10:11:33.000Z</time>
      </trkpt>
      <trkpt lat="53.050542" lon="-2.689789">
        <ele>89.656958</ele>
        <time>2026-06-20T10:11:50.000Z</time>
      </trkpt>
      <trkpt lat="53.050627" lon="-2.690216">
        <ele>90.020833</ele>
        <time>2026-06-20T10:11:53.000Z</time>
      </trkpt>
      <trkpt lat="53.050972" lon="-2.691205">
        <ele>90.93672</ele>
        <time>2026-06-20T10:12:01.000Z</time>
      </trkpt>
      <trkpt lat="53.052192" lon="-2.693982">
        <ele>93.344043</ele>
        <time>2026-06-20T10:12:24.000Z</time>
      </trkpt>
      <trkpt lat="53.052257" lon="-2.694132">
        <ele>93.457556</ele>
        <time>2026-06-20T10:12:25.000Z</time>
      </trkpt>
      <trkpt lat="53.053813" lon="-2.697533">
        <ele>97.865667</ele>
        <time>2026-06-20T10:12:54.000Z</time>
      </trkpt>
      <trkpt lat="53.054214" lon="-2.69829">
        <ele>99.005446</ele>
        <time>2026-06-20T10:13:01.000Z</time>
      </trkpt>
      <trkpt lat="53.05448" lon="-2.69859">
        <ele>99.594796</ele>
        <time>2026-06-20T10:13:05.000Z</time>
      </trkpt>
      <trkpt lat="53.054838" lon="-2.69891">
        <ele>100.326123</ele>
        <time>2026-06-20T10:13:10.000Z</time>
      </trkpt>
      <trkpt lat="53.055208" lon="-2.699128">
        <ele>100.924163</ele>
        <time>2026-06-20T10:13:14.000Z</time>
      </trkpt>
      <trkpt lat="53.055799" lon="-2.699582">
        <ele>101.889859</ele>
        <time>2026-06-20T10:13:21.000Z</time>
      </trkpt>
      <trkpt lat="53.056744" lon="-2.700124">
        <ele>103.292922</ele>
        <time>2026-06-20T10:13:32.000Z</time>
      </trkpt>
      <trkpt lat="53.056752" lon="-2.700145">
        <ele>103.309138</ele>
        <time>2026-06-20T10:13:32.000Z</time>
      </trkpt>
      <trkpt lat="53.057493" lon="-2.700556">
        <ele>104.213665</ele>
        <time>2026-06-20T10:13:41.000Z</time>
      </trkpt>
      <trkpt lat="53.061022" lon="-2.702698">
        <ele>105.704381</ele>
        <time>2026-06-20T10:14:23.000Z</time>
      </trkpt>
      <trkpt lat="53.06186" lon="-2.703225">
        <ele>105.656816</ele>
        <time>2026-06-20T10:14:33.000Z</time>
      </trkpt>
      <trkpt lat="53.062073" lon="-2.703463">
        <ele>105.59759</ele>
        <time>2026-06-20T10:14:36.000Z</time>
      </trkpt>
      <trkpt lat="53.063123" lon="-2.705627">
        <ele>105.690551</ele>
        <time>2026-06-20T10:14:55.000Z</time>
      </trkpt>
      <trkpt lat="53.063455" lon="-2.706397">
        <ele>106.08942</ele>
        <time>2026-06-20T10:15:01.000Z</time>
      </trkpt>
      <trkpt lat="53.063678" lon="-2.707106">
        <ele>106.426884</ele>
        <time>2026-06-20T10:15:06.000Z</time>
      </trkpt>
      <trkpt lat="53.064061" lon="-2.708156">
        <ele>107.409278</ele>
        <time>2026-06-20T10:15:14.000Z</time>
      </trkpt>
      <trkpt lat="53.064699" lon="-2.710187">
        <ele>109.616287</ele>
        <time>2026-06-20T10:15:29.000Z</time>
      </trkpt>
      <trkpt lat="53.064903" lon="-2.7111">
        <ele>110.378719</ele>
        <time>2026-06-20T10:15:36.000Z</time>
      </trkpt>
      <trkpt lat="53.065737" lon="-2.712846">
        <ele>112.05628</ele>
        <time>2026-06-20T10:15:51.000Z</time>
      </trkpt>
      <trkpt lat="53.066027" lon="-2.713387">
        <ele>112.513437</ele>
        <time>2026-06-20T10:15:56.000Z</time>
      </trkpt>
      <trkpt lat="53.067474" lon="-2.715675">
        <ele>114.562319</ele>
        <time>2026-06-20T10:16:18.000Z</time>
      </trkpt>
      <trkpt lat="53.067688" lon="-2.716016">
        <ele>114.862827</ele>
        <time>2026-06-20T10:16:21.000Z</time>
      </trkpt>
      <trkpt lat="53.068685" lon="-2.718054">
        <ele>116.319061</ele>
        <time>2026-06-20T10:16:39.000Z</time>
      </trkpt>
      <trkpt lat="53.068741" lon="-2.718184">
        <ele>116.400788</ele>
        <time>2026-06-20T10:16:40.000Z</time>
      </trkpt>
      <trkpt lat="53.068832" lon="-2.718391">
        <ele>116.530513</ele>
        <time>2026-06-20T10:16:42.000Z</time>
      </trkpt>
      <trkpt lat="53.069123" lon="-2.718733">
        <ele>116.834115</ele>
        <time>2026-06-20T10:16:46.000Z</time>
      </trkpt>
      <trkpt lat="53.069201" lon="-2.718953">
        <ele>116.972304</ele>
        <time>2026-06-20T10:16:48.000Z</time>
      </trkpt>
      <trkpt lat="53.069275" lon="-2.719361">
        <ele>117.195571</ele>
        <time>2026-06-20T10:16:51.000Z</time>
      </trkpt>
      <trkpt lat="53.069316" lon="-2.720116">
        <ele>117.618764</ele>
        <time>2026-06-20T10:16:56.000Z</time>
      </trkpt>
      <trkpt lat="53.069403" lon="-2.720737">
        <ele>117.964849</ele>
        <time>2026-06-20T10:17:00.000Z</time>
      </trkpt>
      <trkpt lat="53.069497" lon="-2.721111">
        <ele>118.187995</ele>
        <time>2026-06-20T10:17:03.000Z</time>
      </trkpt>
      <trkpt lat="53.069797" lon="-2.721863">
        <ele>118.675085</ele>
        <time>2026-06-20T10:17:09.000Z</time>
      </trkpt>
      <trkpt lat="53.070256" lon="-2.722574">
        <ele>119.886042</ele>
        <time>2026-06-20T10:17:16.000Z</time>
      </trkpt>
      <trkpt lat="53.070422" lon="-2.722731">
        <ele>120.295141</ele>
        <time>2026-06-20T10:17:18.000Z</time>
      </trkpt>
      <trkpt lat="53.070808" lon="-2.723017">
        <ele>121.115171</ele>
        <time>2026-06-20T10:17:23.000Z</time>
      </trkpt>
      <trkpt lat="53.070967" lon="-2.723229">
        <ele>121.514387</ele>
        <time>2026-06-20T10:17:25.000Z</time>
      </trkpt>
      <trkpt lat="53.071194" lon="-2.723784">
        <ele>122.318419</ele>
        <time>2026-06-20T10:17:29.000Z</time>
      </trkpt>
      <trkpt lat="53.071456" lon="-2.7242">
        <ele>122.924734</ele>
        <time>2026-06-20T10:17:33.000Z</time>
      </trkpt>
      <trkpt lat="53.071951" lon="-2.724951">
        <ele>124.02867</ele>
        <time>2026-06-20T10:17:40.000Z</time>
      </trkpt>
      <trkpt lat="53.072199" lon="-2.725412">
        <ele>124.649035</ele>
        <time>2026-06-20T10:17:44.000Z</time>
      </trkpt>
      <trkpt lat="53.072554" lon="-2.726085">
        <ele>125.049611</ele>
        <time>2026-06-20T10:17:50.000Z</time>
      </trkpt>
      <trkpt lat="53.072639" lon="-2.726552">
        <ele>124.626733</ele>
        <time>2026-06-20T10:17:53.000Z</time>
      </trkpt>
      <trkpt lat="53.07267" lon="-2.727129">
        <ele>124.10907</ele>
        <time>2026-06-20T10:17:57.000Z</time>
      </trkpt>
      <trkpt lat="53.072604" lon="-2.727948">
        <ele>123.385353</ele>
        <time>2026-06-20T10:18:03.000Z</time>
      </trkpt>
      <trkpt lat="53.072602" lon="-2.728645">
        <ele>122.7753</ele>
        <time>2026-06-20T10:18:08.000Z</time>
      </trkpt>
      <trkpt lat="53.072605" lon="-2.728749">
        <ele>122.679336</ele>
        <time>2026-06-20T10:18:09.000Z</time>
      </trkpt>
      <trkpt lat="53.072597" lon="-2.729103">
        <ele>122.308458</ele>
        <time>2026-06-20T10:18:11.000Z</time>
      </trkpt>
      <trkpt lat="53.072472" lon="-2.73072">
        <ele>120.597896</ele>
        <time>2026-06-20T10:18:22.000Z</time>
      </trkpt>
      <trkpt lat="53.072475" lon="-2.731113">
        <ele>120.204796</ele>
        <time>2026-06-20T10:18:25.000Z</time>
      </trkpt>
      <trkpt lat="53.072532" lon="-2.731334">
        <ele>119.949072</ele>
        <time>2026-06-20T10:18:27.000Z</time>
      </trkpt>
      <trkpt lat="53.07272" lon="-2.731626">
        <ele>119.54509</ele>
        <time>2026-06-20T10:18:30.000Z</time>
      </trkpt>
      <trkpt lat="53.072854" lon="-2.731792">
        <ele>119.73901</ele>
        <time>2026-06-20T10:18:32.000Z</time>
      </trkpt>
      <trkpt lat="53.073335" lon="-2.732205">
        <ele>120.411739</ele>
        <time>2026-06-20T10:18:38.000Z</time>
      </trkpt>
      <trkpt lat="53.07337" lon="-2.732301">
        <ele>120.49381</ele>
        <time>2026-06-20T10:18:39.000Z</time>
      </trkpt>
      <trkpt lat="53.073097" lon="-2.732376">
        <ele>120.826508</ele>
        <time>2026-06-20T10:18:42.000Z</time>
      </trkpt>
      <trkpt lat="53.072835" lon="-2.73253">
        <ele>121.176799</ele>
        <time>2026-06-20T10:18:45.000Z</time>
      </trkpt>
      <trkpt lat="53.072611" lon="-2.732769">
        <ele>121.507991</ele>
        <time>2026-06-20T10:18:48.000Z</time>
      </trkpt>
      <trkpt lat="53.072444" lon="-2.733007">
        <ele>121.731203</ele>
        <time>2026-06-20T10:18:50.000Z</time>
      </trkpt>
      <trkpt lat="53.072301" lon="-2.733127">
        <ele>121.806435</ele>
        <time>2026-06-20T10:18:52.000Z</time>
      </trkpt>
      <trkpt lat="53.071346" lon="-2.73364">
        <ele>122.268078</ele>
        <time>2026-06-20T10:19:03.000Z</time>
      </trkpt>
      <trkpt lat="53.069536" lon="-2.733881">
        <ele>120.015888</ele>
        <time>2026-06-20T10:19:23.000Z</time>
      </trkpt>
      <trkpt lat="53.069196" lon="-2.73387">
        <ele>119.310346</ele>
        <time>2026-06-20T10:19:27.000Z</time>
      </trkpt>
      <trkpt lat="53.069166" lon="-2.733867">
        <ele>119.246382</ele>
        <time>2026-06-20T10:19:27.000Z</time>
      </trkpt>
      <trkpt lat="53.068063" lon="-2.733877">
        <ele>116.516189</ele>
        <time>2026-06-20T10:19:39.000Z</time>
      </trkpt>
      <trkpt lat="53.0675" lon="-2.734044">
        <ele>115.05806</ele>
        <time>2026-06-20T10:19:45.000Z</time>
      </trkpt>
      <trkpt lat="53.066648" lon="-2.734463">
        <ele>113.541502</ele>
        <time>2026-06-20T10:19:55.000Z</time>
      </trkpt>
      <trkpt lat="53.066179" lon="-2.734867">
        <ele>112.898536</ele>
        <time>2026-06-20T10:20:01.000Z</time>
      </trkpt>
      <trkpt lat="53.065254" lon="-2.735611">
        <ele>111.678345</ele>
        <time>2026-06-20T10:20:12.000Z</time>
      </trkpt>
      <trkpt lat="53.064607" lon="-2.735901">
        <ele>110.971918</ele>
        <time>2026-06-20T10:20:19.000Z</time>
      </trkpt>
      <trkpt lat="53.063611" lon="-2.736806">
        <ele>109.49658</ele>
        <time>2026-06-20T10:20:32.000Z</time>
      </trkpt>
      <trkpt lat="53.063309" lon="-2.736923">
        <ele>108.920828</ele>
        <time>2026-06-20T10:20:35.000Z</time>
      </trkpt>
      <trkpt lat="53.06231" lon="-2.736754">
        <ele>107.03536</ele>
        <time>2026-06-20T10:20:46.000Z</time>
      </trkpt>
      <trkpt lat="53.061806" lon="-2.736761">
        <ele>106.508427</ele>
        <time>2026-06-20T10:20:52.000Z</time>
      </trkpt>
      <trkpt lat="53.061105" lon="-2.737133">
        <ele>106.019005</ele>
        <time>2026-06-20T10:21:00.000Z</time>
      </trkpt>
      <trkpt lat="53.06074" lon="-2.737405">
        <ele>105.762179</ele>
        <time>2026-06-20T10:21:04.000Z</time>
      </trkpt>
      <trkpt lat="53.060192" lon="-2.737911">
        <ele>105.881922</ele>
        <time>2026-06-20T10:21:11.000Z</time>
      </trkpt>
      <trkpt lat="53.057318" lon="-2.740748">
        <ele>109.027501</ele>
        <time>2026-06-20T10:21:48.000Z</time>
      </trkpt>
      <trkpt lat="53.056522" lon="-2.741623">
        <ele>107.242758</ele>
        <time>2026-06-20T10:21:59.000Z</time>
      </trkpt>
      <trkpt lat="53.056359" lon="-2.741698">
        <ele>106.91781</ele>
        <time>2026-06-20T10:22:01.000Z</time>
      </trkpt>
      <trkpt lat="53.055096" lon="-2.741949">
        <ele>104.329952</ele>
        <time>2026-06-20T10:22:15.000Z</time>
      </trkpt>
      <trkpt lat="53.054896" lon="-2.742023">
        <ele>103.887868</ele>
        <time>2026-06-20T10:22:17.000Z</time>
      </trkpt>
      <trkpt lat="53.054694" lon="-2.742162">
        <ele>103.393075</ele>
        <time>2026-06-20T10:22:19.000Z</time>
      </trkpt>
      <trkpt lat="53.053909" lon="-2.742974">
        <ele>101.786372</ele>
        <time>2026-06-20T10:22:29.000Z</time>
      </trkpt>
      <trkpt lat="53.05357" lon="-2.743266">
        <ele>101.679613</ele>
        <time>2026-06-20T10:22:33.000Z</time>
      </trkpt>
      <trkpt lat="53.052626" lon="-2.743936">
        <ele>101.391953</ele>
        <time>2026-06-20T10:22:44.000Z</time>
      </trkpt>
      <trkpt lat="53.052239" lon="-2.744328">
        <ele>101.525466</ele>
        <time>2026-06-20T10:22:49.000Z</time>
      </trkpt>
      <trkpt lat="53.051788" lon="-2.744945">
        <ele>101.913245</ele>
        <time>2026-06-20T10:22:55.000Z</time>
      </trkpt>
      <trkpt lat="53.051486" lon="-2.74526">
        <ele>102.158054</ele>
        <time>2026-06-20T10:22:59.000Z</time>
      </trkpt>
      <trkpt lat="53.051205" lon="-2.74545">
        <ele>102.36792</ele>
        <time>2026-06-20T10:23:02.000Z</time>
      </trkpt>
      <trkpt lat="53.050605" lon="-2.745694">
        <ele>102.986296</ele>
        <time>2026-06-20T10:23:09.000Z</time>
      </trkpt>
      <trkpt lat="53.050333" lon="-2.745768">
        <ele>103.349003</ele>
        <time>2026-06-20T10:23:12.000Z</time>
      </trkpt>
      <trkpt lat="53.049873" lon="-2.745747">
        <ele>103.952493</ele>
        <time>2026-06-20T10:23:17.000Z</time>
      </trkpt>
      <trkpt lat="53.049779" lon="-2.74554">
        <ele>104.137767</ele>
        <time>2026-06-20T10:23:19.000Z</time>
      </trkpt>
      <trkpt lat="53.049108" lon="-2.74456">
        <ele>105.29866</ele>
        <time>2026-06-20T10:23:29.000Z</time>
      </trkpt>
      <trkpt lat="53.047592" lon="-2.742698">
        <ele>107.916559</ele>
        <time>2026-06-20T10:23:50.000Z</time>
      </trkpt>
      <trkpt lat="53.047545" lon="-2.742655">
        <ele>107.9895</ele>
        <time>2026-06-20T10:23:51.000Z</time>
      </trkpt>
      <trkpt lat="53.047459" lon="-2.742527">
        <ele>108.2019</ele>
        <time>2026-06-20T10:23:52.000Z</time>
      </trkpt>
      <trkpt lat="53.047341" lon="-2.742348">
        <ele>108.459916</ele>
        <time>2026-06-20T10:23:54.000Z</time>
      </trkpt>
      <trkpt lat="53.047003" lon="-2.741646">
        <ele>109.369263</ele>
        <time>2026-06-20T10:24:00.000Z</time>
      </trkpt>
      <trkpt lat="53.045597" lon="-2.739946">
        <ele>114.167033</ele>
        <time>2026-06-20T10:24:19.000Z</time>
      </trkpt>
      <trkpt lat="53.044092" lon="-2.737669">
        <ele>122.530884</ele>
        <time>2026-06-20T10:24:42.000Z</time>
      </trkpt>
      <trkpt lat="53.043326" lon="-2.736938">
        <ele>125.796761</ele>
        <time>2026-06-20T10:24:52.000Z</time>
      </trkpt>
      <trkpt lat="53.042625" lon="-2.736043">
        <ele>128.661629</ele>
        <time>2026-06-20T10:25:02.000Z</time>
      </trkpt>
      <trkpt lat="53.042846" lon="-2.735754">
        <ele>129.612883</ele>
        <time>2026-06-20T10:25:05.000Z</time>
      </trkpt>
      <trkpt lat="53.043386" lon="-2.734937">
        <ele>129.708743</ele>
        <time>2026-06-20T10:25:13.000Z</time>
      </trkpt>
      <trkpt lat="53.043618" lon="-2.734672">
        <ele>129.637779</ele>
        <time>2026-06-20T10:25:16.000Z</time>
      </trkpt>
      <trkpt lat="53.044076" lon="-2.734312">
        <ele>129.511694</ele>
        <time>2026-06-20T10:25:22.000Z</time>
      </trkpt>
      <trkpt lat="53.044877" lon="-2.733901">
        <ele>127.262907</ele>
        <time>2026-06-20T10:25:31.000Z</time>
      </trkpt>
      <trkpt lat="53.045349" lon="-2.733472">
        <ele>124.8476</ele>
        <time>2026-06-20T10:25:37.000Z</time>
      </trkpt>
      <trkpt lat="53.045522" lon="-2.733283">
        <ele>123.83532</ele>
        <time>2026-06-20T10:25:39.000Z</time>
      </trkpt>
      <trkpt lat="53.045986" lon="-2.732651">
        <ele>121.093411</ele>
        <time>2026-06-20T10:25:46.000Z</time>
      </trkpt>
      <trkpt lat="53.04623" lon="-2.732202">
        <ele>118.824715</ele>
        <time>2026-06-20T10:25:50.000Z</time>
      </trkpt>
      <trkpt lat="53.046353" lon="-2.731881">
        <ele>117.334863</ele>
        <time>2026-06-20T10:25:53.000Z</time>
      </trkpt>
      <trkpt lat="53.046591" lon="-2.730768">
        <ele>112.938414</ele>
        <time>2026-06-20T10:26:01.000Z</time>
      </trkpt>
      <trkpt lat="53.046659" lon="-2.730546">
        <ele>111.97852</ele>
        <time>2026-06-20T10:26:03.000Z</time>
      </trkpt>
      <trkpt lat="53.047009" lon="-2.729959">
        <ele>109.134369</ele>
        <time>2026-06-20T10:26:09.000Z</time>
      </trkpt>
      <trkpt lat="53.048175" lon="-2.7284">
        <ele>102.044753</ele>
        <time>2026-06-20T10:26:26.000Z</time>
      </trkpt>
      <trkpt lat="53.048918" lon="-2.727706">
        <ele>97.956155</ele>
        <time>2026-06-20T10:26:35.000Z</time>
      </trkpt>
      <trkpt lat="53.049061" lon="-2.727534">
        <ele>97.121691</ele>
        <time>2026-06-20T10:26:37.000Z</time>
      </trkpt>
      <trkpt lat="53.049157" lon="-2.727309">
        <ele>96.2775</ele>
        <time>2026-06-20T10:26:39.000Z</time>
      </trkpt>
      <trkpt lat="53.049403" lon="-2.726471">
        <ele>93.560194</ele>
        <time>2026-06-20T10:26:45.000Z</time>
      </trkpt>
      <trkpt lat="53.04946" lon="-2.726146">
        <ele>92.659014</ele>
        <time>2026-06-20T10:26:47.000Z</time>
      </trkpt>
      <trkpt lat="53.049517" lon="-2.725419">
        <ele>91.79556</ele>
        <time>2026-06-20T10:26:52.000Z</time>
      </trkpt>
      <trkpt lat="53.049537" lon="-2.725126">
        <ele>91.433781</ele>
        <time>2026-06-20T10:26:54.000Z</time>
      </trkpt>
      <trkpt lat="53.049554" lon="-2.724964">
        <ele>91.239682</ele>
        <time>2026-06-20T10:26:55.000Z</time>
      </trkpt>
      <trkpt lat="53.049623" lon="-2.724682">
        <ele>90.883296</ele>
        <time>2026-06-20T10:26:57.000Z</time>
      </trkpt>
      <trkpt lat="53.049737" lon="-2.724401">
        <ele>90.482364</ele>
        <time>2026-06-20T10:26:59.000Z</time>
      </trkpt>
      <trkpt lat="53.050324" lon="-2.723377">
        <ele>89.138681</ele>
        <time>2026-06-20T10:27:08.000Z</time>
      </trkpt>
      <trkpt lat="53.050882" lon="-2.72198">
        <ele>89.10958</ele>
        <time>2026-06-20T10:27:19.000Z</time>
      </trkpt>
      <trkpt lat="53.051134" lon="-2.72141">
        <ele>89.097133</ele>
        <time>2026-06-20T10:27:24.000Z</time>
      </trkpt>
      <trkpt lat="53.051255" lon="-2.721054">
        <ele>89.237545</ele>
        <time>2026-06-20T10:27:27.000Z</time>
      </trkpt>
      <trkpt lat="53.051316" lon="-2.720751">
        <ele>89.682421</ele>
        <time>2026-06-20T10:27:29.000Z</time>
      </trkpt>
      <trkpt lat="53.051451" lon="-2.72026">
        <ele>90.467675</ele>
        <time>2026-06-20T10:27:33.000Z</time>
      </trkpt>
      <trkpt lat="53.051564" lon="-2.719987">
        <ele>90.923689</ele>
        <time>2026-06-20T10:27:35.000Z</time>
      </trkpt>
      <trkpt lat="53.051766" lon="-2.719623">
        <ele>91.635266</ele>
        <time>2026-06-20T10:27:38.000Z</time>
      </trkpt>
      <trkpt lat="53.052064" lon="-2.718624">
        <ele>93.228137</ele>
        <time>2026-06-20T10:27:45.000Z</time>
      </trkpt>
      <trkpt lat="53.052274" lon="-2.71807">
        <ele>94.605838</ele>
        <time>2026-06-20T10:27:49.000Z</time>
      </trkpt>
      <trkpt lat="53.052299" lon="-2.71802">
        <ele>94.766525</ele>
        <time>2026-06-20T10:27:49.000Z</time>
      </trkpt>
      <trkpt lat="53.052328" lon="-2.717952">
        <ele>94.954391</ele>
        <time>2026-06-20T10:27:50.000Z</time>
      </trkpt>
      <trkpt lat="53.052759" lon="-2.716886">
        <ele>97.816676</ele>
        <time>2026-06-20T10:27:59.000Z</time>
      </trkpt>
      <trkpt lat="53.053075" lon="-2.716366">
        <ele>99.438538</ele>
        <time>2026-06-20T10:28:04.000Z</time>
      </trkpt>
      <trkpt lat="53.053303" lon="-2.715833">
        <ele>100.553322</ele>
        <time>2026-06-20T10:28:08.000Z</time>
      </trkpt>
      <trkpt lat="53.053366" lon="-2.715544">
        <ele>100.996336</ele>
        <time>2026-06-20T10:28:10.000Z</time>
      </trkpt>
      <trkpt lat="53.053372" lon="-2.715079">
        <ele>101.618831</ele>
        <time>2026-06-20T10:28:13.000Z</time>
      </trkpt>
      <trkpt lat="53.053206" lon="-2.713875">
        <ele>103.301095</ele>
        <time>2026-06-20T10:28:21.000Z</time>
      </trkpt>
      <trkpt lat="53.053165" lon="-2.713482">
        <ele>103.849798</ele>
        <time>2026-06-20T10:28:24.000Z</time>
      </trkpt>
      <trkpt lat="53.053249" lon="-2.711526">
        <ele>105.380228</ele>
        <time>2026-06-20T10:28:37.000Z</time>
      </trkpt>
      <trkpt lat="53.053214" lon="-2.711252">
        <ele>105.579519</ele>
        <time>2026-06-20T10:28:39.000Z</time>
      </trkpt>
      <trkpt lat="53.052908" lon="-2.710413">
        <ele>106.24783</ele>
        <time>2026-06-20T10:28:46.000Z</time>
      </trkpt>
      <trkpt lat="53.052894" lon="-2.710275">
        <ele>106.246857</ele>
        <time>2026-06-20T10:28:47.000Z</time>
      </trkpt>
      <trkpt lat="53.052909" lon="-2.710108">
        <ele>106.245657</ele>
        <time>2026-06-20T10:28:48.000Z</time>
      </trkpt>
      <trkpt lat="53.053006" lon="-2.70988">
        <ele>106.243852</ele>
        <time>2026-06-20T10:28:50.000Z</time>
      </trkpt>
      <trkpt lat="53.053518" lon="-2.708818">
        <ele>106.234774</ele>
        <time>2026-06-20T10:28:59.000Z</time>
      </trkpt>
      <trkpt lat="53.053762" lon="-2.70802">
        <ele>106.228649</ele>
        <time>2026-06-20T10:29:05.000Z</time>
      </trkpt>
      <trkpt lat="53.053914" lon="-2.707614">
        <ele>105.946295</ele>
        <time>2026-06-20T10:29:08.000Z</time>
      </trkpt>
      <trkpt lat="53.054543" lon="-2.706385">
        <ele>104.736091</ele>
        <time>2026-06-20T10:29:19.000Z</time>
      </trkpt>
      <trkpt lat="53.054682" lon="-2.705962">
        <ele>104.383287</ele>
        <time>2026-06-20T10:29:22.000Z</time>
      </trkpt>
      <trkpt lat="53.05535" lon="-2.701994">
        <ele>100.97094</ele>
        <time>2026-06-20T10:29:50.000Z</time>
      </trkpt>
      <trkpt lat="53.055556" lon="-2.700832">
        <ele>101.250381</ele>
        <time>2026-06-20T10:29:58.000Z</time>
      </trkpt>
      <trkpt lat="53.055787" lon="-2.699579">
        <ele>101.614675</ele>
        <time>2026-06-20T10:30:07.000Z</time>
      </trkpt>
      <trkpt lat="53.055798" lon="-2.699291">
        <ele>101.788956</ele>
        <time>2026-06-20T10:30:09.000Z</time>
      </trkpt>
      <trkpt lat="53.055795" lon="-2.699289">
        <ele>101.79167</ele>
        <time>2026-06-20T10:30:09.000Z</time>
      </trkpt>
      <trkpt lat="53.055791" lon="-2.699294">
        <ele>101.793805</ele>
        <time>2026-06-20T10:30:09.000Z</time>
      </trkpt>
      <trkpt lat="53.055781" lon="-2.699293">
        <ele>101.793802</ele>
        <time>2026-06-20T10:30:09.000Z</time>
      </trkpt>
      <trkpt lat="53.055644" lon="-2.698903">
        <ele>102.076928</ele>
        <time>2026-06-20T10:30:12.000Z</time>
      </trkpt>
      <trkpt lat="53.055521" lon="-2.698405">
        <ele>102.414047</ele>
        <time>2026-06-20T10:30:16.000Z</time>
      </trkpt>
      <trkpt lat="53.055469" lon="-2.698004">
        <ele>102.671376</ele>
        <time>2026-06-20T10:30:19.000Z</time>
      </trkpt>
      <trkpt lat="53.055473" lon="-2.697813">
        <ele>102.790775</ele>
        <time>2026-06-20T10:30:20.000Z</time>
      </trkpt>
      <trkpt lat="53.055476" lon="-2.697792">
        <ele>102.800646</ele>
        <time>2026-06-20T10:30:20.000Z</time>
      </trkpt>
      <trkpt lat="53.055474" lon="-2.697796">
        <ele>102.801911</ele>
        <time>2026-06-20T10:30:20.000Z</time>
      </trkpt>
      <trkpt lat="53.055565" lon="-2.697384">
        <ele>103.062679</ele>
        <time>2026-06-20T10:30:23.000Z</time>
      </trkpt>
      <trkpt lat="53.055561" lon="-2.697363">
        <ele>103.083023</ele>
        <time>2026-06-20T10:30:23.000Z</time>
      </trkpt>
      <trkpt lat="53.055572" lon="-2.69736">
        <ele>103.084646</ele>
        <time>2026-06-20T10:30:23.000Z</time>
      </trkpt>
      <trkpt lat="53.055709" lon="-2.696978">
        <ele>103.364554</ele>
        <time>2026-06-20T10:30:26.000Z</time>
      </trkpt>
      <trkpt lat="53.055984" lon="-2.696362">
        <ele>101.98265</ele>
        <time>2026-06-20T10:30:31.000Z</time>
      </trkpt>
      <trkpt lat="53.055984" lon="-2.696362">
        <ele>101.98264</ele>
        <time>2026-06-20T10:30:31.000Z</time>
      </trkpt>
      <trkpt lat="53.055953" lon="-2.696125">
        <ele>101.529575</ele>
        <time>2026-06-20T10:30:33.000Z</time>
      </trkpt>
      <trkpt lat="53.055848" lon="-2.695866">
        <ele>100.928077</ele>
        <time>2026-06-20T10:30:35.000Z</time>
      </trkpt>
      <trkpt lat="53.055737" lon="-2.695707">
        <ele>100.447395</ele>
        <time>2026-06-20T10:30:37.000Z</time>
      </trkpt>
      <trkpt lat="53.055531" lon="-2.695525">
        <ele>99.701226</ele>
        <time>2026-06-20T10:30:40.000Z</time>
      </trkpt>
      <trkpt lat="53.055268" lon="-2.695237">
        <ele>98.728453</ele>
        <time>2026-06-20T10:30:44.000Z</time>
      </trkpt>
      <trkpt lat="53.054874" lon="-2.694674">
        <ele>97.016307</ele>
        <time>2026-06-20T10:30:50.000Z</time>
      </trkpt>
      <trkpt lat="53.054686" lon="-2.69437">
        <ele>96.101594</ele>
        <time>2026-06-20T10:30:53.000Z</time>
      </trkpt>
      <trkpt lat="53.054544" lon="-2.694025">
        <ele>95.224104</ele>
        <time>2026-06-20T10:30:56.000Z</time>
      </trkpt>
      <trkpt lat="53.054399" lon="-2.693524">
        <ele>94.038219</ele>
        <time>2026-06-20T10:31:00.000Z</time>
      </trkpt>
      <trkpt lat="53.054303" lon="-2.693021">
        <ele>92.902982</ele>
        <time>2026-06-20T10:31:04.000Z</time>
      </trkpt>
      <trkpt lat="53.054297" lon="-2.692748">
        <ele>92.314873</ele>
        <time>2026-06-20T10:31:06.000Z</time>
      </trkpt>
      <trkpt lat="53.054312" lon="-2.692215">
        <ele>91.2690294253</ele>
        <time>2026-06-20T10:31:10.000Z</time>
      </trkpt>
      <trkpt lat="53.054365" lon="-2.691712">
        <ele>90.2680977864</ele>
        <time>2026-06-20T10:31:13.000Z</time>
      </trkpt>
      <trkpt lat="53.054388" lon="-2.691632">
        <ele>90.0942805653</ele>
        <time>2026-06-20T10:31:14.000Z</time>
      </trkpt>
      <trkpt lat="53.055033" lon="-2.6884">
        <ele>83.4194484228</ele>
        <time>2026-06-20T10:31:37.000Z</time>
      </trkpt>
      <trkpt lat="53.055033" lon="-2.688397">
        <ele>83.4135684149</ele>
        <time>2026-06-20T10:31:37.000Z</time>
      </trkpt>
    </trkseg>
  </trk>
</gpx>

<!--
Performance optimized by W3 Total Cache. Learn more: https://www.boldgrid.com/w3-total-cache/?utm_source=w3tc&utm_medium=footer_comment&utm_campaign=free_plugin

Page Caching using Disk: Enhanced{w3tc_pagecache_reject_reason} 

Served from: www.aquabike.world @ 2026-05-10 18:49:46 by W3 Total Cache
-->